sensor_id;sensor_type;location;lat;lon;timestamp;temperature;humidity
9323;DHT22;4700;48.822;9.270;2023-07-02T00:01:04;16.60;1.00
9323;DHT22;4700;48.822;9.270;2023-07-02T00:03:50;16.60;1.00
9323;DHT22;4700;48.822;9.270;2023-07-02T00:06:35;16.50;1.00
9323;DHT22;4700;48.822;9.270;2023-07-02T00:09:24;16.50;1.00
9323;DHT22;4700;48.822;9.270;2023-07-02T00:12:13;16.60;1.00
9323;DHT22;4700;48.822;9.270;2023-07-02T00:14:59;16.50;1.00
9323;DHT22;4700;48.822;9.270;2023-07-02T00:17:45;16.60;1.00
9323;DHT22;4700;48.822;9.270;2023-07-02T00:20:30;16.50;1.00
9323;DHT22;4700;48.822;9.270;2023-07-02T00:23:21;16.50;1.00
9323;DHT22;4700;48.822;9.270;2023-07-02T00:26:07;16.50;1.00
9323;DHT22;4700;48.822;9.270;2023-07-02T00:28:55;16.50;1.00
9323;DHT22;4700;48.822;9.270;2023-07-02T00:31:41;16.40;1.00
9323;DHT22;4700;48.822;9.270;2023-07-02T00:34:27;16.30;1.00
9323;DHT22;4700;48.822;9.270;2023-07-02T00:37:12;16.30;1.00
9323;DHT22;4700;48.822;9.270;2023-07-02T00:40:03;16.30;1.00
9323;DHT22;4700;48.822;9.270;2023-07-02T00:42:48;16.30;1.00
9323;DHT22;4700;48.822;9.270;2023-07-02T00:45:35;16.20;1.00
9323;DHT22;4700;48.822;9.270;2023-07-02T00:48:22;16.40;1.00
9323;DHT22;4700;48.822;9.270;2023-07-02T00:51:08;16.50;1.00
9323;DHT22;4700;48.822;9.270;2023-07-02T00:53:56;16.50;1.00
9323;DHT22;4700;48.822;9.270;2023-07-02T00:56:42;16.60;1.00
9323;DHT22;4700;48.822;9.270;2023-07-02T00:59:30;16.60;1.00
9323;DHT22;4700;48.822;9.270;2023-07-02T01:02:19;16.60;1.00
9323;DHT22;4700;48.822;9.270;2023-07-02T01:05:05;16.60;1.00
9323;DHT22;4700;48.822;9.270;2023-07-02T01:07:51;16.60;1.00
9323;DHT22;4700;48.822;9.270;2023-07-02T01:10:36;16.60;1.00
9323;DHT22;4700;48.822;9.270;2023-07-02T01:13:23;16.70;1.00
9323;DHT22;4700;48.822;9.270;2023-07-02T01:16:10;16.60;1.00
9323;DHT22;4700;48.822;9.270;2023-07-02T01:18:57;16.60;1.00
9323;DHT22;4700;48.822;9.270;2023-07-02T01:21:44;16.60;1.00
9323;DHT22;4700;48.822;9.270;2023-07-02T01:24:30;16.50;1.00
9323;DHT22;4700;48.822;9.270;2023-07-02T01:27:16;16.60;1.00
9323;DHT22;4700;48.822;9.270;2023-07-02T01:30:02;16.70;1.00
9323;DHT22;4700;48.822;9.270;2023-07-02T01:32:48;16.70;1.00
9323;DHT22;4700;48.822;9.270;2023-07-02T01:35:34;16.80;1.00
9323;DHT22;4700;48.822;9.270;2023-07-02T01:38:21;16.80;1.00
9323;DHT22;4700;48.822;9.270;2023-07-02T01:41:07;16.70;1.00
9323;DHT22;4700;48.822;9.270;2023-07-02T01:43:53;16.60;1.00
9323;DHT22;4700;48.822;9.270;2023-07-02T01:46:40;16.50;1.00
9323;DHT22;4700;48.822;9.270;2023-07-02T01:49:25;16.60;1.00
9323;DHT22;4700;48.822;9.270;2023-07-02T01:52:11;16.60;1.00
9323;DHT22;4700;48.822;9.270;2023-07-02T01:54:59;16.60;1.00
9323;DHT22;4700;48.822;9.270;2023-07-02T01:57:45;16.60;1.00
9323;DHT22;4700;48.822;9.270;2023-07-02T02:00:30;16.60;1.00
9323;DHT22;4700;48.822;9.270;2023-07-02T02:03:16;16.60;1.00
9323;DHT22;4700;48.822;9.270;2023-07-02T02:06:01;16.60;1.00
9323;DHT22;4700;48.822;9.270;2023-07-02T02:08:47;16.60;1.00
9323;DHT22;4700;48.822;9.270;2023-07-02T02:11:39;16.70;1.00
9323;DHT22;4700;48.822;9.270;2023-07-02T02:14:25;16.70;1.00
9323;DHT22;4700;48.822;9.270;2023-07-02T02:17:10;16.70;1.00
9323;DHT22;4700;48.822;9.270;2023-07-02T02:19:56;16.70;1.00
9323;DHT22;4700;48.822;9.270;2023-07-02T02:22:44;16.80;1.00
9323;DHT22;4700;48.822;9.270;2023-07-02T02:25:29;16.80;1.00
9323;DHT22;4700;48.822;9.270;2023-07-02T02:28:16;16.80;1.00
9323;DHT22;4700;48.822;9.270;2023-07-02T02:31:04;16.80;1.00
9323;DHT22;4700;48.822;9.270;2023-07-02T02:33:50;16.80;1.00
9323;DHT22;4700;48.822;9.270;2023-07-02T02:36:36;16.90;1.00
9323;DHT22;4700;48.822;9.270;2023-07-02T02:39:21;16.90;1.00
9323;DHT22;4700;48.822;9.270;2023-07-02T02:42:07;16.90;1.00
9323;DHT22;4700;48.822;9.270;2023-07-02T02:44:54;16.90;1.00
9323;DHT22;4700;48.822;9.270;2023-07-02T02:47:43;16.90;1.00
9323;DHT22;4700;48.822;9.270;2023-07-02T02:50:31;16.90;1.00
9323;DHT22;4700;48.822;9.270;2023-07-02T02:53:16;17.00;1.00
9323;DHT22;4700;48.822;9.270;2023-07-02T02:56:02;16.90;1.00
9323;DHT22;4700;48.822;9.270;2023-07-02T02:58:50;17.00;1.00
9323;DHT22;4700;48.822;9.270;2023-07-02T03:01:40;17.10;1.00
9323;DHT22;4700;48.822;9.270;2023-07-02T03:04:25;17.10;1.00
9323;DHT22;4700;48.822;9.270;2023-07-02T03:07:11;17.10;1.00
9323;DHT22;4700;48.822;9.270;2023-07-02T03:09:57;17.20;1.00
9323;DHT22;4700;48.822;9.270;2023-07-02T03:12:43;17.20;1.00
9323;DHT22;4700;48.822;9.270;2023-07-02T03:15:28;17.20;1.00
9323;DHT22;4700;48.822;9.270;2023-07-02T03:21:02;17.10;1.00
9323;DHT22;4700;48.822;9.270;2023-07-02T03:23:48;17.20;1.00
9323;DHT22;4700;48.822;9.270;2023-07-02T03:26:33;17.20;1.00
9323;DHT22;4700;48.822;9.270;2023-07-02T03:29:19;17.10;1.00
9323;DHT22;4700;48.822;9.270;2023-07-02T03:32:05;17.00;1.00
9323;DHT22;4700;48.822;9.270;2023-07-02T03:34:53;17.00;1.00
9323;DHT22;4700;48.822;9.270;2023-07-02T03:37:38;16.70;1.00
9323;DHT22;4700;48.822;9.270;2023-07-02T03:40:27;16.40;1.00
9323;DHT22;4700;48.822;9.270;2023-07-02T03:43:13;16.30;1.00
9323;DHT22;4700;48.822;9.270;2023-07-02T03:45:58;16.10;1.00
9323;DHT22;4700;48.822;9.270;2023-07-02T03:48:44;16.00;1.00
9323;DHT22;4700;48.822;9.270;2023-07-02T03:51:31;16.00;1.00
9323;DHT22;4700;48.822;9.270;2023-07-02T03:54:17;15.90;1.00
9323;DHT22;4700;48.822;9.270;2023-07-02T03:57:03;15.80;1.00
9323;DHT22;4700;48.822;9.270;2023-07-02T03:59:49;15.90;1.00
9323;DHT22;4700;48.822;9.270;2023-07-02T04:02:37;15.80;1.00
9323;DHT22;4700;48.822;9.270;2023-07-02T04:05:22;15.90;1.00
9323;DHT22;4700;48.822;9.270;2023-07-02T04:08:10;15.80;1.00
9323;DHT22;4700;48.822;9.270;2023-07-02T04:10:56;15.90;1.00
9323;DHT22;4700;48.822;9.270;2023-07-02T04:13:42;15.90;1.00
9323;DHT22;4700;48.822;9.270;2023-07-02T04:16:27;15.90;1.00
9323;DHT22;4700;48.822;9.270;2023-07-02T04:19:13;15.90;1.00
9323;DHT22;4700;48.822;9.270;2023-07-02T04:21:59;15.80;1.00
9323;DHT22;4700;48.822;9.270;2023-07-02T04:24:46;15.90;1.00
9323;DHT22;4700;48.822;9.270;2023-07-02T04:27:33;15.90;1.00
9323;DHT22;4700;48.822;9.270;2023-07-02T04:30:18;15.90;1.00
9323;DHT22;4700;48.822;9.270;2023-07-02T04:33:03;15.90;1.00
9323;DHT22;4700;48.822;9.270;2023-07-02T04:35:49;16.00;1.00
9323;DHT22;4700;48.822;9.270;2023-07-02T04:38:35;16.00;1.00
9323;DHT22;4700;48.822;9.270;2023-07-02T04:41:25;16.10;1.00
9323;DHT22;4700;48.822;9.270;2023-07-02T04:44:11;16.20;1.00
9323;DHT22;4700;48.822;9.270;2023-07-02T04:46:57;16.20;1.00
9323;DHT22;4700;48.822;9.270;2023-07-02T04:49:43;16.30;1.00
9323;DHT22;4700;48.822;9.270;2023-07-02T04:52:29;16.50;1.00
9323;DHT22;4700;48.822;9.270;2023-07-02T04:55:14;16.50;1.00
9323;DHT22;4700;48.822;9.270;2023-07-02T04:58:02;16.60;1.00
9323;DHT22;4700;48.822;9.270;2023-07-02T05:00:47;16.60;1.00
9323;DHT22;4700;48.822;9.270;2023-07-02T05:03:33;16.80;1.00
9323;DHT22;4700;48.822;9.270;2023-07-02T05:06:19;17.10;1.00
9323;DHT22;4700;48.822;9.270;2023-07-02T05:09:04;17.40;1.00
9323;DHT22;4700;48.822;9.270;2023-07-02T05:11:50;17.40;1.00
9323;DHT22;4700;48.822;9.270;2023-07-02T05:14:37;17.60;1.00
9323;DHT22;4700;48.822;9.270;2023-07-02T05:17:23;17.60;1.00
9323;DHT22;4700;48.822;9.270;2023-07-02T05:20:09;17.50;1.00
9323;DHT22;4700;48.822;9.270;2023-07-02T05:22:55;17.80;1.00
9323;DHT22;4700;48.822;9.270;2023-07-02T05:25:44;17.60;1.00
9323;DHT22;4700;48.822;9.270;2023-07-02T05:28:30;17.70;1.00
9323;DHT22;4700;48.822;9.270;2023-07-02T05:31:17;17.80;1.00
9323;DHT22;4700;48.822;9.270;2023-07-02T05:34:03;17.80;1.00
9323;DHT22;4700;48.822;9.270;2023-07-02T05:36:48;17.80;1.00
9323;DHT22;4700;48.822;9.270;2023-07-02T05:39:34;18.00;1.00
9323;DHT22;4700;48.822;9.270;2023-07-02T05:42:19;17.90;1.00
9323;DHT22;4700;48.822;9.270;2023-07-02T05:45:08;17.90;1.00
9323;DHT22;4700;48.822;9.270;2023-07-02T05:47:55;17.90;1.00
9323;DHT22;4700;48.822;9.270;2023-07-02T05:50:41;18.00;1.00
9323;DHT22;4700;48.822;9.270;2023-07-02T05:53:26;18.10;1.00
9323;DHT22;4700;48.822;9.270;2023-07-02T05:56:12;18.40;1.00
9323;DHT22;4700;48.822;9.270;2023-07-02T05:59:01;18.80;1.00
9323;DHT22;4700;48.822;9.270;2023-07-02T06:01:47;19.60;1.00
9323;DHT22;4700;48.822;9.270;2023-07-02T06:04:34;21.10;1.00
9323;DHT22;4700;48.822;9.270;2023-07-02T06:07:19;22.30;1.00
9323;DHT22;4700;48.822;9.270;2023-07-02T06:10:06;22.40;1.00
9323;DHT22;4700;48.822;9.270;2023-07-02T06:12:51;22.20;1.00
9323;DHT22;4700;48.822;9.270;2023-07-02T06:15:37;22.20;1.00
9323;DHT22;4700;48.822;9.270;2023-07-02T06:18:23;21.60;1.00
9323;DHT22;4700;48.822;9.270;2023-07-02T06:21:10;21.90;1.00
9323;DHT22;4700;48.822;9.270;2023-07-02T06:23:56;23.60;1.00
9323;DHT22;4700;48.822;9.270;2023-07-02T06:26:43;25.30;1.00
9323;DHT22;4700;48.822;9.270;2023-07-02T06:29:28;26.10;1.00
9323;DHT22;4700;48.822;9.270;2023-07-02T06:32:16;26.10;1.00
9323;DHT22;4700;48.822;9.270;2023-07-02T06:35:02;26.40;1.00
9323;DHT22;4700;48.822;9.270;2023-07-02T06:37:49;26.80;1.00
9323;DHT22;4700;48.822;9.270;2023-07-02T06:40:35;26.50;1.00
9323;DHT22;4700;48.822;9.270;2023-07-02T06:43:23;26.20;1.00
9323;DHT22;4700;48.822;9.270;2023-07-02T06:46:10;25.20;1.00
9323;DHT22;4700;48.822;9.270;2023-07-02T06:48:56;24.30;1.00
9323;DHT22;4700;48.822;9.270;2023-07-02T06:51:42;23.80;1.00
9323;DHT22;4700;48.822;9.270;2023-07-02T06:54:28;24.10;1.00
9323;DHT22;4700;48.822;9.270;2023-07-02T06:57:14;23.60;1.00
9323;DHT22;4700;48.822;9.270;2023-07-02T07:00:00;23.00;1.00
9323;DHT22;4700;48.822;9.270;2023-07-02T07:02:47;22.40;1.00
9323;DHT22;4700;48.822;9.270;2023-07-02T07:05:33;22.30;1.00
9323;DHT22;4700;48.822;9.270;2023-07-02T07:08:18;22.10;1.00
9323;DHT22;4700;48.822;9.270;2023-07-02T07:11:05;22.70;1.00
9323;DHT22;4700;48.822;9.270;2023-07-02T07:13:51;24.60;1.00
9323;DHT22;4700;48.822;9.270;2023-07-02T07:16:37;26.10;1.00
9323;DHT22;4700;48.822;9.270;2023-07-02T07:19:23;27.40;1.00
9323;DHT22;4700;48.822;9.270;2023-07-02T07:22:09;26.70;1.00
9323;DHT22;4700;48.822;9.270;2023-07-02T07:24:54;25.70;1.00
9323;DHT22;4700;48.822;9.270;2023-07-02T07:27:41;25.70;1.00
9323;DHT22;4700;48.822;9.270;2023-07-02T07:30:27;24.90;1.00
9323;DHT22;4700;48.822;9.270;2023-07-02T07:33:13;23.90;1.00
9323;DHT22;4700;48.822;9.270;2023-07-02T07:35:58;23.60;1.00
9323;DHT22;4700;48.822;9.270;2023-07-02T07:38:44;23.50;1.00
9323;DHT22;4700;48.822;9.270;2023-07-02T07:41:30;23.80;1.00
9323;DHT22;4700;48.822;9.270;2023-07-02T07:44:18;24.00;1.00
9323;DHT22;4700;48.822;9.270;2023-07-02T07:47:04;24.80;1.00
9323;DHT22;4700;48.822;9.270;2023-07-02T07:49:50;26.20;1.00
9323;DHT22;4700;48.822;9.270;2023-07-02T07:55:22;26.40;1.00
9323;DHT22;4700;48.822;9.270;2023-07-02T07:58:07;25.20;1.00
9323;DHT22;4700;48.822;9.270;2023-07-02T08:00:57;25.30;1.00
9323;DHT22;4700;48.822;9.270;2023-07-02T08:03:45;26.40;1.00
9323;DHT22;4700;48.822;9.270;2023-07-02T08:06:30;26.50;1.00
9323;DHT22;4700;48.822;9.270;2023-07-02T08:09:09;27.40;1.00
9323;DHT22;4700;48.822;9.270;2023-07-02T08:11:55;27.50;1.00
9323;DHT22;4700;48.822;9.270;2023-07-02T08:14:41;27.30;1.00
9323;DHT22;4700;48.822;9.270;2023-07-02T08:17:28;26.50;1.00
9323;DHT22;4700;48.822;9.270;2023-07-02T08:20:15;26.10;1.00
9323;DHT22;4700;48.822;9.270;2023-07-02T08:23:01;25.50;1.00
9323;DHT22;4700;48.822;9.270;2023-07-02T08:25:47;25.20;1.00
9323;DHT22;4700;48.822;9.270;2023-07-02T08:28:33;25.00;1.00
9323;DHT22;4700;48.822;9.270;2023-07-02T08:31:19;24.60;1.00
9323;DHT22;4700;48.822;9.270;2023-07-02T08:34:06;24.10;1.00
9323;DHT22;4700;48.822;9.270;2023-07-02T08:36:52;24.30;1.00
9323;DHT22;4700;48.822;9.270;2023-07-02T08:39:37;26.10;1.00
9323;DHT22;4700;48.822;9.270;2023-07-02T08:42:24;28.30;1.00
9323;DHT22;4700;48.822;9.270;2023-07-02T08:45:14;30.20;1.00
9323;DHT22;4700;48.822;9.270;2023-07-02T08:48:00;30.50;1.00
9323;DHT22;4700;48.822;9.270;2023-07-02T08:50:48;30.40;1.00
9323;DHT22;4700;48.822;9.270;2023-07-02T08:53:34;29.80;1.00
9323;DHT22;4700;48.822;9.270;2023-07-02T08:56:19;30.00;1.00
9323;DHT22;4700;48.822;9.270;2023-07-02T08:59:06;31.40;1.00
9323;DHT22;4700;48.822;9.270;2023-07-02T09:01:54;32.50;1.00
9323;DHT22;4700;48.822;9.270;2023-07-02T09:04:39;32.10;1.00
9323;DHT22;4700;48.822;9.270;2023-07-02T09:07:27;33.20;1.00
9323;DHT22;4700;48.822;9.270;2023-07-02T09:10:24;33.30;1.00
9323;DHT22;4700;48.822;9.270;2023-07-02T09:13:13;33.00;1.00
9323;DHT22;4700;48.822;9.270;2023-07-02T09:15:58;33.50;1.00
9323;DHT22;4700;48.822;9.270;2023-07-02T09:18:56;33.90;1.00
9323;DHT22;4700;48.822;9.270;2023-07-02T09:21:43;35.00;1.00
9323;DHT22;4700;48.822;9.270;2023-07-02T09:24:31;34.10;1.00
9323;DHT22;4700;48.822;9.270;2023-07-02T09:27:17;34.70;99.90
9323;DHT22;4700;48.822;9.270;2023-07-02T09:30:07;33.30;99.90
9323;DHT22;4700;48.822;9.270;2023-07-02T09:32:53;32.80;1.00
9323;DHT22;4700;48.822;9.270;2023-07-02T09:35:40;33.90;99.90
9323;DHT22;4700;48.822;9.270;2023-07-02T09:38:26;35.00;99.90
9323;DHT22;4700;48.822;9.270;2023-07-02T09:41:13;33.40;99.90
9323;DHT22;4700;48.822;9.270;2023-07-02T09:44:00;32.10;99.90
9323;DHT22;4700;48.822;9.270;2023-07-02T09:46:51;32.50;99.90
9323;DHT22;4700;48.822;9.270;2023-07-02T09:49:39;30.50;99.90
9323;DHT22;4700;48.822;9.270;2023-07-02T09:52:26;31.00;99.90
9323;DHT22;4700;48.822;9.270;2023-07-02T09:55:13;31.00;99.90
9323;DHT22;4700;48.822;9.270;2023-07-02T09:57:59;30.60;99.90
9323;DHT22;4700;48.822;9.270;2023-07-02T10:00:45;29.20;99.90
9323;DHT22;4700;48.822;9.270;2023-07-02T10:06:17;29.10;99.90
9323;DHT22;4700;48.822;9.270;2023-07-02T10:09:03;28.20;99.90
9323;DHT22;4700;48.822;9.270;2023-07-02T10:11:48;28.20;1.00
9323;DHT22;4700;48.822;9.270;2023-07-02T10:14:43;28.20;1.00
9323;DHT22;4700;48.822;9.270;2023-07-02T10:17:32;29.20;99.90
9323;DHT22;4700;48.822;9.270;2023-07-02T10:20:18;30.00;99.90
9323;DHT22;4700;48.822;9.270;2023-07-02T10:23:05;30.20;99.90
9323;DHT22;4700;48.822;9.270;2023-07-02T10:25:51;29.20;99.90
9323;DHT22;4700;48.822;9.270;2023-07-02T10:28:36;29.30;99.90
9323;DHT22;4700;48.822;9.270;2023-07-02T10:31:23;30.50;99.90
9323;DHT22;4700;48.822;9.270;2023-07-02T10:34:09;30.40;99.90
9323;DHT22;4700;48.822;9.270;2023-07-02T10:36:55;28.90;99.90
9323;DHT22;4700;48.822;9.270;2023-07-02T10:39:40;28.90;99.90
9323;DHT22;4700;48.822;9.270;2023-07-02T10:42:25;29.30;99.90
9323;DHT22;4700;48.822;9.270;2023-07-02T10:45:11;28.90;99.90
9323;DHT22;4700;48.822;9.270;2023-07-02T10:47:59;28.30;99.90
9323;DHT22;4700;48.822;9.270;2023-07-02T10:50:46;27.80;99.90
9323;DHT22;4700;48.822;9.270;2023-07-02T10:53:31;27.40;99.90
9323;DHT22;4700;48.822;9.270;2023-07-02T10:56:17;27.30;99.90
9323;DHT22;4700;48.822;9.270;2023-07-02T10:59:03;26.60;99.90
9323;DHT22;4700;48.822;9.270;2023-07-02T11:01:52;26.50;1.00
9323;DHT22;4700;48.822;9.270;2023-07-02T11:04:41;26.30;1.00
9323;DHT22;4700;48.822;9.270;2023-07-02T11:07:26;26.60;99.90
9323;DHT22;4700;48.822;9.270;2023-07-02T11:10:18;26.60;1.00
9323;DHT22;4700;48.822;9.270;2023-07-02T11:13:10;26.50;1.00
9323;DHT22;4700;48.822;9.270;2023-07-02T11:15:56;26.40;1.00
9323;DHT22;4700;48.822;9.270;2023-07-02T11:18:42;26.20;1.00
9323;DHT22;4700;48.822;9.270;2023-07-02T11:21:29;26.20;1.00
9323;DHT22;4700;48.822;9.270;2023-07-02T11:24:15;25.90;1.00
9323;DHT22;4700;48.822;9.270;2023-07-02T11:27:02;25.20;1.00
9323;DHT22;4700;48.822;9.270;2023-07-02T11:29:48;25.20;1.00
9323;DHT22;4700;48.822;9.270;2023-07-02T11:32:48;25.00;1.00
9323;DHT22;4700;48.822;9.270;2023-07-02T11:35:35;25.00;1.00
9323;DHT22;4700;48.822;9.270;2023-07-02T11:38:22;25.20;1.00
9323;DHT22;4700;48.822;9.270;2023-07-02T11:41:08;25.30;1.00
9323;DHT22;4700;48.822;9.270;2023-07-02T11:43:54;25.30;1.00
9323;DHT22;4700;48.822;9.270;2023-07-02T11:46:40;25.20;1.00
9323;DHT22;4700;48.822;9.270;2023-07-02T11:49:25;25.30;1.00
9323;DHT22;4700;48.822;9.270;2023-07-02T11:52:14;25.10;1.00
9323;DHT22;4700;48.822;9.270;2023-07-02T11:55:01;25.10;1.00
9323;DHT22;4700;48.822;9.270;2023-07-02T11:57:47;25.20;1.00
9323;DHT22;4700;48.822;9.270;2023-07-02T12:00:33;25.10;1.00
9323;DHT22;4700;48.822;9.270;2023-07-02T12:03:19;25.50;1.00
9323;DHT22;4700;48.822;9.270;2023-07-02T12:06:04;25.40;1.00
9323;DHT22;4700;48.822;9.270;2023-07-02T12:08:50;25.50;99.90
9323;DHT22;4700;48.822;9.270;2023-07-02T12:11:41;25.50;1.00
9323;DHT22;4700;48.822;9.270;2023-07-02T12:14:29;25.70;1.00
9323;DHT22;4700;48.822;9.270;2023-07-02T12:17:15;25.70;1.00
9323;DHT22;4700;48.822;9.270;2023-07-02T12:20:00;25.70;1.00
9323;DHT22;4700;48.822;9.270;2023-07-02T12:22:46;25.80;99.90
9323;DHT22;4700;48.822;9.270;2023-07-02T12:25:31;25.90;99.90
9323;DHT22;4700;48.822;9.270;2023-07-02T12:28:18;25.90;1.00
9323;DHT22;4700;48.822;9.270;2023-07-02T12:31:04;25.50;1.00
9323;DHT22;4700;48.822;9.270;2023-07-02T12:33:50;25.30;1.00
9323;DHT22;4700;48.822;9.270;2023-07-02T12:36:36;25.30;1.00
9323;DHT22;4700;48.822;9.270;2023-07-02T12:42:07;25.30;99.90
9323;DHT22;4700;48.822;9.270;2023-07-02T12:44:55;25.20;1.00
9323;DHT22;4700;48.822;9.270;2023-07-02T12:47:41;25.40;99.90
9323;DHT22;4700;48.822;9.270;2023-07-02T12:50:27;25.70;99.90
9323;DHT22;4700;48.822;9.270;2023-07-02T12:53:13;25.70;1.00
9323;DHT22;4700;48.822;9.270;2023-07-02T12:55:58;25.90;99.90
9323;DHT22;4700;48.822;9.270;2023-07-02T12:58:44;25.90;99.90
9323;DHT22;4700;48.822;9.270;2023-07-02T13:01:31;26.90;99.90
9323;DHT22;4700;48.822;9.270;2023-07-02T13:04:17;25.30;99.90
9323;DHT22;4700;48.822;9.270;2023-07-02T13:07:03;25.30;99.90
9323;DHT22;4700;48.822;9.270;2023-07-02T13:09:49;25.50;99.90
9323;DHT22;4700;48.822;9.270;2023-07-02T13:12:34;25.40;99.90
9323;DHT22;4700;48.822;9.270;2023-07-02T13:15:20;25.40;99.90
9323;DHT22;4700;48.822;9.270;2023-07-02T13:18:07;25.40;99.90
9323;DHT22;4700;48.822;9.270;2023-07-02T13:20:52;25.40;99.90
9323;DHT22;4700;48.822;9.270;2023-07-02T13:23:38;25.60;99.90
9323;DHT22;4700;48.822;9.270;2023-07-02T13:26:24;25.60;99.90
9323;DHT22;4700;48.822;9.270;2023-07-02T13:29:10;25.40;99.90
9323;DHT22;4700;48.822;9.270;2023-07-02T13:31:56;25.50;99.90
9323;DHT22;4700;48.822;9.270;2023-07-02T13:34:43;25.30;99.90
9323;DHT22;4700;48.822;9.270;2023-07-02T13:37:28;25.40;99.90
9323;DHT22;4700;48.822;9.270;2023-07-02T13:40:14;25.50;99.90
9323;DHT22;4700;48.822;9.270;2023-07-02T13:43:00;25.50;99.90
9323;DHT22;4700;48.822;9.270;2023-07-02T13:45:47;25.60;99.90
9323;DHT22;4700;48.822;9.270;2023-07-02T13:51:20;25.20;99.90
9323;DHT22;4700;48.822;9.270;2023-07-02T13:54:06;25.30;99.90
9323;DHT22;4700;48.822;9.270;2023-07-02T13:56:52;25.50;99.90
9323;DHT22;4700;48.822;9.270;2023-07-02T13:59:39;25.70;99.90
9323;DHT22;4700;48.822;9.270;2023-07-02T14:02:25;25.80;99.90
9323;DHT22;4700;48.822;9.270;2023-07-02T14:05:10;25.80;99.90
9323;DHT22;4700;48.822;9.270;2023-07-02T14:10:43;25.60;99.90
9323;DHT22;4700;48.822;9.270;2023-07-02T14:13:29;25.50;99.90
9323;DHT22;4700;48.822;9.270;2023-07-02T14:16:16;25.50;99.90
9323;DHT22;4700;48.822;9.270;2023-07-02T14:19:02;25.60;99.90
9323;DHT22;4700;48.822;9.270;2023-07-02T14:21:47;25.60;99.90
9323;DHT22;4700;48.822;9.270;2023-07-02T14:24:34;25.70;99.90
9323;DHT22;4700;48.822;9.270;2023-07-02T14:27:20;25.80;99.90
9323;DHT22;4700;48.822;9.270;2023-07-02T14:30:07;25.70;99.90
9323;DHT22;4700;48.822;9.270;2023-07-02T14:32:54;25.70;99.90
9323;DHT22;4700;48.822;9.270;2023-07-02T14:35:40;25.60;99.90
9323;DHT22;4700;48.822;9.270;2023-07-02T14:38:26;25.60;99.90
9323;DHT22;4700;48.822;9.270;2023-07-02T14:41:12;25.80;99.90
9323;DHT22;4700;48.822;9.270;2023-07-02T14:43:58;25.90;99.90
9323;DHT22;4700;48.822;9.270;2023-07-02T14:46:43;25.80;99.90
9323;DHT22;4700;48.822;9.270;2023-07-02T14:49:31;25.80;99.90
9323;DHT22;4700;48.822;9.270;2023-07-02T14:52:18;25.90;99.90
9323;DHT22;4700;48.822;9.270;2023-07-02T14:55:04;25.90;99.90
9323;DHT22;4700;48.822;9.270;2023-07-02T14:57:50;25.70;99.90
9323;DHT22;4700;48.822;9.270;2023-07-02T15:00:35;25.70;99.90
9323;DHT22;4700;48.822;9.270;2023-07-02T15:03:22;25.70;99.90
9323;DHT22;4700;48.822;9.270;2023-07-02T15:06:12;25.70;99.90
9323;DHT22;4700;48.822;9.270;2023-07-02T15:08:58;25.50;99.90
9323;DHT22;4700;48.822;9.270;2023-07-02T15:11:43;25.60;99.90
9323;DHT22;4700;48.822;9.270;2023-07-02T15:14:32;25.60;99.90
9323;DHT22;4700;48.822;9.270;2023-07-02T15:17:17;25.60;99.90
9323;DHT22;4700;48.822;9.270;2023-07-02T15:20:04;25.80;99.90
9323;DHT22;4700;48.822;9.270;2023-07-02T15:22:54;26.00;99.90
9323;DHT22;4700;48.822;9.270;2023-07-02T15:25:40;26.10;99.90
9323;DHT22;4700;48.822;9.270;2023-07-02T15:28:27;26.20;99.90
9323;DHT22;4700;48.822;9.270;2023-07-02T15:31:12;26.40;99.90
9323;DHT22;4700;48.822;9.270;2023-07-02T15:33:58;26.40;99.90
9323;DHT22;4700;48.822;9.270;2023-07-02T15:36:44;26.40;99.90
9323;DHT22;4700;48.822;9.270;2023-07-02T15:39:32;26.20;99.90
9323;DHT22;4700;48.822;9.270;2023-07-02T15:42:19;26.10;99.90
9323;DHT22;4700;48.822;9.270;2023-07-02T15:45:05;26.00;99.90
9323;DHT22;4700;48.822;9.270;2023-07-02T15:47:52;25.90;99.90
9323;DHT22;4700;48.822;9.270;2023-07-02T15:50:38;26.20;99.90
9323;DHT22;4700;48.822;9.270;2023-07-02T15:53:24;26.20;99.90
9323;DHT22;4700;48.822;9.270;2023-07-02T15:56:11;26.10;99.90
9323;DHT22;4700;48.822;9.270;2023-07-02T15:58:56;26.10;99.90
9323;DHT22;4700;48.822;9.270;2023-07-02T16:01:44;26.00;99.90
9323;DHT22;4700;48.822;9.270;2023-07-02T16:04:31;25.90;99.90
9323;DHT22;4700;48.822;9.270;2023-07-02T16:07:17;25.90;99.90
9323;DHT22;4700;48.822;9.270;2023-07-02T16:10:04;26.10;99.90
9323;DHT22;4700;48.822;9.270;2023-07-02T16:12:52;26.20;99.90
9323;DHT22;4700;48.822;9.270;2023-07-02T16:15:38;26.20;99.90
9323;DHT22;4700;48.822;9.270;2023-07-02T16:18:24;26.10;99.90
9323;DHT22;4700;48.822;9.270;2023-07-02T16:21:10;26.10;99.90
9323;DHT22;4700;48.822;9.270;2023-07-02T16:23:56;26.20;99.90
9323;DHT22;4700;48.822;9.270;2023-07-02T16:26:41;26.40;99.90
9323;DHT22;4700;48.822;9.270;2023-07-02T16:29:30;26.20;99.90
9323;DHT22;4700;48.822;9.270;2023-07-02T16:32:16;26.20;99.90
9323;DHT22;4700;48.822;9.270;2023-07-02T16:35:05;26.20;99.90
9323;DHT22;4700;48.822;9.270;2023-07-02T16:37:52;26.10;99.90
9323;DHT22;4700;48.822;9.270;2023-07-02T16:40:37;26.10;99.90
9323;DHT22;4700;48.822;9.270;2023-07-02T16:43:23;26.10;99.90
9323;DHT22;4700;48.822;9.270;2023-07-02T16:46:10;26.00;99.90
9323;DHT22;4700;48.822;9.270;2023-07-02T16:48:58;25.90;99.90
9323;DHT22;4700;48.822;9.270;2023-07-02T16:51:43;25.90;99.90
9323;DHT22;4700;48.822;9.270;2023-07-02T16:54:29;25.90;99.90
9323;DHT22;4700;48.822;9.270;2023-07-02T16:57:15;25.70;99.90
9323;DHT22;4700;48.822;9.270;2023-07-02T17:00:01;25.70;99.90
9323;DHT22;4700;48.822;9.270;2023-07-02T17:02:48;25.60;99.90
9323;DHT22;4700;48.822;9.270;2023-07-02T17:05:34;25.60;99.90
9323;DHT22;4700;48.822;9.270;2023-07-02T17:08:19;25.60;99.90
9323;DHT22;4700;48.822;9.270;2023-07-02T17:10:51;25.50;99.90
9323;DHT22;4700;48.822;9.270;2023-07-02T17:13:37;25.50;99.90
9323;DHT22;4700;48.822;9.270;2023-07-02T17:16:23;25.50;99.90
9323;DHT22;4700;48.822;9.270;2023-07-02T17:19:10;25.50;99.90
9323;DHT22;4700;48.822;9.270;2023-07-02T17:21:57;25.50;99.90
9323;DHT22;4700;48.822;9.270;2023-07-02T17:24:44;25.50;99.90
9323;DHT22;4700;48.822;9.270;2023-07-02T17:27:32;25.40;99.90
9323;DHT22;4700;48.822;9.270;2023-07-02T17:30:18;25.30;99.90
9323;DHT22;4700;48.822;9.270;2023-07-02T17:33:03;25.30;99.90
9323;DHT22;4700;48.822;9.270;2023-07-02T17:35:50;25.20;99.90
9323;DHT22;4700;48.822;9.270;2023-07-02T17:38:36;25.20;99.90
9323;DHT22;4700;48.822;9.270;2023-07-02T17:41:22;25.10;99.90
9323;DHT22;4700;48.822;9.270;2023-07-02T17:44:08;25.00;99.90
9323;DHT22;4700;48.822;9.270;2023-07-02T17:46:55;24.70;99.90
9323;DHT22;4700;48.822;9.270;2023-07-02T17:49:44;24.70;99.90
9323;DHT22;4700;48.822;9.270;2023-07-02T17:52:31;24.60;99.90
9323;DHT22;4700;48.822;9.270;2023-07-02T17:55:17;24.40;99.90
9323;DHT22;4700;48.822;9.270;2023-07-02T17:58:03;24.40;99.90
9323;DHT22;4700;48.822;9.270;2023-07-02T18:00:50;24.20;99.90
9323;DHT22;4700;48.822;9.270;2023-07-02T18:03:36;24.20;99.90
9323;DHT22;4700;48.822;9.270;2023-07-02T18:06:22;24.00;99.90
9323;DHT22;4700;48.822;9.270;2023-07-02T18:09:10;23.70;99.90
9323;DHT22;4700;48.822;9.270;2023-07-02T18:11:55;23.70;99.90
9323;DHT22;4700;48.822;9.270;2023-07-02T18:14:42;23.60;99.90
9323;DHT22;4700;48.822;9.270;2023-07-02T18:17:27;23.40;99.90
9323;DHT22;4700;48.822;9.270;2023-07-02T18:20:13;23.20;99.90
9323;DHT22;4700;48.822;9.270;2023-07-02T18:22:59;23.20;99.90
9323;DHT22;4700;48.822;9.270;2023-07-02T18:25:52;23.00;99.90
9323;DHT22;4700;48.822;9.270;2023-07-02T18:28:38;23.00;99.90
9323;DHT22;4700;48.822;9.270;2023-07-02T18:31:24;22.90;99.90
9323;DHT22;4700;48.822;9.270;2023-07-02T18:34:10;22.80;99.90